sensor_id;sensor_type;location;lat;lon;timestamp;pressure;altitude;pressure_sealevel;temperature;humidity
63554;BME280;49699;48.072;7.800;2023-01-29T00:00:01;100505.72;;;0.50;79.23
63554;BME280;49699;48.072;7.800;2023-01-29T00:02:26;100503.16;;;0.50;79.23
63554;BME280;49699;48.072;7.800;2023-01-29T00:04:51;100504.88;;;0.53;79.20
63554;BME280;49699;48.072;7.800;2023-01-29T00:07:17;100502.28;;;0.51;nan
63554;BME280;49699;48.072;7.800;2023-01-29T00:09:42;100508.28;;;0.50;79.41
63554;BME280;49699;48.072;7.800;2023-01-29T00:12:08;100502.28;;;0.53;79.38
63554;BME280;49699;48.072;7.800;2023-01-29T00:14:33;100496.31;;;0.52;79.22
63554;BME280;49699;48.072;7.800;2023-01-29T00:16:59;100493.72;;;0.54;79.19
63554;BME280;49699;48.072;7.800;2023-01-29T00:19:24;100498.00;;;0.58;78.95
63554;BME280;49699;48.072;7.800;2023-01-29T00:21:49;100499.72;;;0.57;79.07
63554;BME280;49699;48.072;7.800;2023-01-29T00:24:14;100502.28;;;0.57;78.54
63554;BME280;49699;48.072;7.800;2023-01-29T00:26:40;100510.81;;;0.58;78.78
63554;BME280;49699;48.072;7.800;2023-01-29T00:29:06;100496.31;;;0.60;78.78
63554;BME280;49699;48.072;7.800;2023-01-29T00:31:32;100493.75;;;0.63;78.53
63554;BME280;49699;48.072;7.800;2023-01-29T00:33:58;100497.16;;;0.63;78.44
63554;BME280;49699;48.072;7.800;2023-01-29T00:36:24;100501.44;;;0.64;78.39
63554;BME280;49699;48.072;7.800;2023-01-29T00:38:54;100499.72;;;0.68;78.18
63554;BME280;49699;48.072;7.800;2023-01-29T00:41:22;100505.72;;;0.68;78.10
63554;BME280;49699;48.072;7.800;2023-01-29T00:44:07;100502.28;;;0.69;78.10
63554;BME280;49699;48.072;7.800;2023-01-29T00:46:51;100499.72;;;0.69;78.13
63554;BME280;49699;48.072;7.800;2023-01-29T00:49:16;100493.75;;;0.71;77.87
63554;BME280;49699;48.072;7.800;2023-01-29T00:51:42;100492.91;;;0.72;77.91
63554;BME280;49699;48.072;7.800;2023-01-29T00:54:07;100487.78;;;0.72;77.84
63554;BME280;49699;48.072;7.800;2023-01-29T00:56:35;100483.50;;;0.71;77.79
63554;BME280;49699;48.072;7.800;2023-01-29T00:59:01;100481.78;;;0.71;78.10
63554;BME280;49699;48.072;7.800;2023-01-29T01:01:26;100483.47;;;0.72;77.99
63554;BME280;49699;48.072;7.800;2023-01-29T01:04:11;100481.75;;;0.73;77.72
63554;BME280;49699;48.072;7.800;2023-01-29T01:06:37;100481.78;;;0.71;77.72
63554;BME280;49699;48.072;7.800;2023-01-29T01:09:02;100483.47;;;0.72;77.80
63554;BME280;49699;48.072;7.800;2023-01-29T01:11:47;100481.78;;;0.68;77.96
63554;BME280;49699;48.072;7.800;2023-01-29T01:14:12;100477.53;;;0.67;77.75
63554;BME280;49699;48.072;7.800;2023-01-29T01:16:39;100483.50;;;0.64;78.18
63554;BME280;49699;48.072;7.800;2023-01-29T01:19:05;100480.06;;;0.64;78.10
63554;BME280;49699;48.072;7.800;2023-01-29T01:21:31;100487.78;;;0.64;78.05
63554;BME280;49699;48.072;7.800;2023-01-29T01:23:56;100485.19;;;0.62;78.15
63554;BME280;49699;48.072;7.800;2023-01-29T01:26:22;100487.75;;;0.58;78.10
63554;BME280;49699;48.072;7.800;2023-01-29T01:28:47;100484.34;;;0.59;78.16
63554;BME280;49699;48.072;7.800;2023-01-29T01:31:12;100489.47;;;0.57;78.21
63554;BME280;49699;48.072;7.800;2023-01-29T01:33:38;100477.53;;;0.53;78.55
63554;BME280;49699;48.072;7.800;2023-01-29T01:36:04;100483.50;;;0.51;78.26
63554;BME280;49699;48.072;7.800;2023-01-29T01:38:33;100484.34;;;0.45;78.65
63554;BME280;49699;48.072;7.800;2023-01-29T01:40:58;100487.75;;;0.43;78.60
63554;BME280;49699;48.072;7.800;2023-01-29T01:43:24;100489.47;;;0.39;78.55
63554;BME280;49699;48.072;7.800;2023-01-29T01:45:50;100491.19;;;0.34;78.81
63554;BME280;49699;48.072;7.800;2023-01-29T01:48:19;100496.31;;;0.32;78.61
63554;BME280;49699;48.072;7.800;2023-01-29T01:50:59;100494.59;;;0.33;78.78
63554;BME280;49699;48.072;7.800;2023-01-29T01:53:28;100498.88;;;0.34;78.75
63554;BME280;49699;48.072;7.800;2023-01-29T01:55:59;100492.03;;;0.31;78.43
63554;BME280;49699;48.072;7.800;2023-01-29T01:58:33;100490.34;;;0.30;78.64
63554;BME280;49699;48.072;7.800;2023-01-29T02:01:00;100486.06;;;0.25;78.78
63554;BME280;49699;48.072;7.800;2023-01-29T02:03:27;100478.34;;;0.20;78.82
63554;BME280;49699;48.072;7.800;2023-01-29T02:06:13;100479.22;;;0.16;78.74
63554;BME280;49699;48.072;7.800;2023-01-29T02:08:59;100481.78;;;0.12;79.08
63554;BME280;49699;48.072;7.800;2023-01-29T02:11:45;100489.44;;;0.09;78.99
63554;BME280;49699;48.072;7.800;2023-01-29T02:14:10;100488.56;;;0.05;78.83
63554;BME280;49699;48.072;7.800;2023-01-29T02:16:36;100497.09;;;0.03;79.03
63554;BME280;49699;48.072;7.800;2023-01-29T02:19:02;100490.28;;;-0.03;78.68
63554;BME280;49699;48.072;7.800;2023-01-29T02:21:49;100501.38;;;-0.07;78.79
63554;BME280;49699;48.072;7.800;2023-01-29T02:27:09;100506.44;;;-0.13;78.80
63554;BME280;49699;48.072;7.800;2023-01-29T02:32:40;100516.69;;;-0.19;78.58
63554;BME280;49699;48.072;7.800;2023-01-29T02:40:54;100504.72;;;-0.28;78.63
63554;BME280;49699;48.072;7.800;2023-01-29T02:43:26;100518.34;;;-0.29;78.55
63554;BME280;49699;48.072;7.800;2023-01-29T02:45:59;100509.81;;;-0.28;78.46
63554;BME280;49699;48.072;7.800;2023-01-29T02:48:26;100510.66;;;-0.30;78.83
63554;BME280;49699;48.072;7.800;2023-01-29T02:50:56;100522.59;;;-0.31;78.55
63554;BME280;49699;48.072;7.800;2023-01-29T02:56:14;100514.06;;;-0.35;78.43
63554;BME280;49699;48.072;7.800;2023-01-29T02:58:42;100520.88;;;-0.35;78.12
63554;BME280;49699;48.072;7.800;2023-01-29T03:01:21;100519.19;;;-0.36;78.14
63554;BME280;49699;48.072;7.800;2023-01-29T03:03:48;100519.19;;;-0.38;78.22
63554;BME280;49699;48.072;7.800;2023-01-29T03:06:19;100520.00;;;-0.36;78.54
63554;BME280;49699;48.072;7.800;2023-01-29T03:08:58;100520.00;;;-0.36;78.40
63554;BME280;49699;48.072;7.800;2023-01-29T03:11:26;100524.28;;;-0.35;78.34
63554;BME280;49699;48.072;7.800;2023-01-29T03:13:56;100526.84;;;-0.35;78.22
63554;BME280;49699;48.072;7.800;2023-01-29T03:19:38;100526.00;;;-0.38;77.99
63554;BME280;49699;48.072;7.800;2023-01-29T03:21:46;100526.84;;;-0.38;78.05
63554;BME280;49699;48.072;7.800;2023-01-29T03:27:13;100523.44;;;-0.41;77.51
63554;BME280;49699;48.072;7.800;2023-01-29T03:29:58;100529.41;;;-0.41;77.44
63554;BME280;49699;48.072;7.800;2023-01-29T03:32:53;100520.00;;;-0.45;77.71
63554;BME280;49699;48.072;7.800;2023-01-29T03:35:24;100531.09;;;-0.41;77.82
63554;BME280;49699;48.072;7.800;2023-01-29T03:38:01;100527.69;;;-0.40;77.67
63554;BME280;49699;48.072;7.800;2023-01-29T03:40:28;100530.25;;;-0.42;77.60
63554;BME280;49699;48.072;7.800;2023-01-29T03:43:04;100528.53;;;-0.44;77.75
63554;BME280;49699;48.072;7.800;2023-01-29T03:48:35;100532.81;;;-0.40;77.64
63554;BME280;49699;48.072;7.800;2023-01-29T04:00:56;100529.34;;;-0.48;77.46
63554;BME280;49699;48.072;7.800;2023-01-29T04:03:24;100532.75;;;-0.49;77.04
63554;BME280;49699;48.072;7.800;2023-01-29T04:05:52;100527.66;;;-0.48;77.18
63554;BME280;49699;48.072;7.800;2023-01-29T04:08:27;100536.16;;;-0.50;76.76
63554;BME280;49699;48.072;7.800;2023-01-29T04:10:55;100536.13;;;-0.53;76.98
63554;BME280;49699;48.072;7.800;2023-01-29T04:13:23;100531.88;;;-0.53;77.31
63554;BME280;49699;48.072;7.800;2023-01-29T04:15:49;100537.88;;;-0.49;76.83
63554;BME280;49699;48.072;7.800;2023-01-29T04:18:24;100532.75;;;-0.51;77.13
63554;BME280;49699;48.072;7.800;2023-01-29T04:21:03;100539.56;;;-0.53;76.85
63554;BME280;49699;48.072;7.800;2023-01-29T04:23:31;100537.84;;;-0.51;77.17
63554;BME280;49699;48.072;7.800;2023-01-29T04:26:00;100531.06;;;-0.47;76.86
63554;BME280;49699;48.072;7.800;2023-01-29T04:31:07;100536.16;;;-0.52;77.19
63554;BME280;49699;48.072;7.800;2023-01-29T04:34:22;100535.28;;;-0.52;76.86
63554;BME280;49699;48.072;7.800;2023-01-29T04:36:29;100527.63;;;-0.54;77.00
63554;BME280;49699;48.072;7.800;2023-01-29T04:39:06;100526.75;;;-0.53;77.28
63554;BME280;49699;48.072;7.800;2023-01-29T04:41:39;100528.47;;;-0.52;76.74
63554;BME280;49699;48.072;7.800;2023-01-29T04:47:11;100529.34;;;-0.54;77.30
63554;BME280;49699;48.072;7.800;2023-01-29T04:52:21;100519.97;;;-0.55;76.80
63554;BME280;49699;48.072;7.800;2023-01-29T04:57:15;100519.09;;;-0.57;77.07
63554;BME280;49699;48.072;7.800;2023-01-29T04:59:47;100514.84;;;-0.57;77.04
63554;BME280;49699;48.072;7.800;2023-01-29T05:02:15;100514.84;;;-0.57;77.26
63554;BME280;49699;48.072;7.800;2023-01-29T05:04:41;100513.13;;;-0.56;77.22
63554;BME280;49699;48.072;7.800;2023-01-29T05:07:10;100527.63;;;-0.57;77.13
63554;BME280;49699;48.072;7.800;2023-01-29T05:09:36;100520.78;;;-0.58;76.92
63554;BME280;49699;48.072;7.800;2023-01-29T05:12:02;100534.44;;;-0.57;77.51
63554;BME280;49699;48.072;7.800;2023-01-29T05:14:29;100539.56;;;-0.56;77.25
63554;BME280;49699;48.072;7.800;2023-01-29T05:16:57;100535.31;;;-0.55;77.19
63554;BME280;49699;48.072;7.800;2023-01-29T05:19:26;100533.59;;;-0.58;77.14
63554;BME280;49699;48.072;7.800;2023-01-29T05:21:51;100532.72;;;-0.58;77.18
63554;BME280;49699;48.072;7.800;2023-01-29T05:24:18;100525.91;;;-0.58;77.02
63554;BME280;49699;48.072;7.800;2023-01-29T05:26:45;100527.63;;;-0.57;77.00
63554;BME280;49699;48.072;7.800;2023-01-29T05:29:30;100520.78;;;-0.61;77.33
63554;BME280;49699;48.072;7.800;2023-01-29T05:31:55;100521.63;;;-0.60;77.14
63554;BME280;49699;48.072;7.800;2023-01-29T05:34:20;100521.63;;;-0.62;77.01
63554;BME280;49699;48.072;7.800;2023-01-29T05:36:45;100525.88;;;-0.61;77.13
63554;BME280;49699;48.072;7.800;2023-01-29T05:39:11;100525.03;;;-0.61;77.28
63554;BME280;49699;48.072;7.800;2023-01-29T05:41:36;100521.59;;;-0.65;77.25
63554;BME280;49699;48.072;7.800;2023-01-29T05:44:01;100535.22;;;-0.67;76.92
63554;BME280;49699;48.072;7.800;2023-01-29T05:46:27;100538.59;;;-0.72;77.26
63554;BME280;49699;48.072;7.800;2023-01-29T05:48:52;100536.06;;;-0.73;77.07
63554;BME280;49699;48.072;7.800;2023-01-29T05:51:17;100537.78;;;-0.72;77.31
63554;BME280;49699;48.072;7.800;2023-01-29T05:53:43;100540.31;;;-0.75;77.45
63554;BME280;49699;48.072;7.800;2023-01-29T05:56:08;100546.28;;;-0.75;77.25
63554;BME280;49699;48.072;7.800;2023-01-29T05:58:33;100547.16;;;-0.73;77.16
63554;BME280;49699;48.072;7.800;2023-01-29T06:01:09;100542.00;;;-0.71;77.33
63554;BME280;49699;48.072;7.800;2023-01-29T06:03:34;100548.84;;;-0.68;77.20
63554;BME280;49699;48.072;7.800;2023-01-29T06:06:02;100541.19;;;-0.68;77.43
63554;BME280;49699;48.072;7.800;2023-01-29T06:08:28;100534.34;;;-0.70;77.12
63554;BME280;49699;48.072;7.800;2023-01-29T06:10:53;100525.81;;;-0.72;77.14
63554;BME280;49699;48.072;7.800;2023-01-29T06:13:18;100524.13;;;-0.70;77.20
63554;BME280;49699;48.072;7.800;2023-01-29T06:15:43;100523.28;;;-0.70;77.18
63554;BME280;49699;48.072;7.800;2023-01-29T06:18:09;100513.91;;;-0.68;77.08
63554;BME280;49699;48.072;7.800;2023-01-29T06:20:34;100507.91;;;-0.72;77.18
63554;BME280;49699;48.072;7.800;2023-01-29T06:22:59;100514.75;;;-0.72;77.37
63554;BME280;49699;48.072;7.800;2023-01-29T06:25:25;100521.56;;;-0.74;77.71
63554;BME280;49699;48.072;7.800;2023-01-29T06:27:50;100526.69;;;-0.74;77.61
63554;BME280;49699;48.072;7.800;2023-01-29T06:30:15;100528.34;;;-0.78;77.75
63554;BME280;49699;48.072;7.800;2023-01-29T06:32:41;100527.47;;;-0.81;77.47
63554;BME280;49699;48.072;7.800;2023-01-29T06:35:06;100539.38;;;-0.85;77.58
63554;BME280;49699;48.072;7.800;2023-01-29T06:37:33;100539.38;;;-0.86;77.88
63554;BME280;49699;48.072;7.800;2023-01-29T06:39:59;100541.91;;;-0.89;77.60
63554;BME280;49699;48.072;7.800;2023-01-29T06:42:24;100541.06;;;-0.91;77.77
63554;BME280;49699;48.072;7.800;2023-01-29T06:44:52;100544.44;;;-0.95;78.03
63554;BME280;49699;48.072;7.800;2023-01-29T06:47:18;100542.72;;;-0.98;78.31
63554;BME280;49699;48.072;7.800;2023-01-29T06:49:43;100550.38;;;-0.99;77.72
63554;BME280;49699;48.072;7.800;2023-01-29T06:52:08;100551.19;;;-1.02;77.96
63554;BME280;49699;48.072;7.800;2023-01-29T06:54:34;100569.91;;;-1.03;78.32
63554;BME280;49699;48.072;7.800;2023-01-29T06:56:59;100567.34;;;-1.05;78.19
63554;BME280;49699;48.072;7.800;2023-01-29T06:59:24;100563.09;;;-1.09;78.38
63554;BME280;49699;48.072;7.800;2023-01-29T07:01:49;100567.34;;;-1.09;78.41
63554;BME280;49699;48.072;7.800;2023-01-29T07:04:15;100579.25;;;-1.11;78.03
63554;BME280;49699;48.072;7.800;2023-01-29T07:06:40;100582.63;;;-1.12;77.99
63554;BME280;49699;48.072;7.800;2023-01-29T07:09:05;100581.75;;;-1.17;78.11
63554;BME280;49699;48.072;7.800;2023-01-29T07:11:31;100585.13;;;-1.18;78.17
63554;BME280;49699;48.072;7.800;2023-01-29T07:13:59;100588.53;;;-1.18;78.24
63554;BME280;49699;48.072;7.800;2023-01-29T07:16:24;100585.13;;;-1.20;77.98
63554;BME280;49699;48.072;7.800;2023-01-29T07:18:50;100585.09;;;-1.21;78.20
63554;BME280;49699;48.072;7.800;2023-01-29T07:21:15;100588.53;;;-1.19;77.74
63554;BME280;49699;48.072;7.800;2023-01-29T07:23:41;100590.25;;;-1.18;77.89
63554;BME280;49699;48.072;7.800;2023-01-29T07:26:06;100591.97;;;-1.17;77.66
63554;BME280;49699;48.072;7.800;2023-01-29T07:28:34;100593.72;;;-1.12;77.58
63554;BME280;49699;48.072;7.800;2023-01-29T07:31:00;100592.03;;;-1.10;77.32
63554;BME280;49699;48.072;7.800;2023-01-29T07:33:25;100596.31;;;-1.04;77.26
63554;BME280;49699;48.072;7.800;2023-01-29T07:35:51;100595.50;;;-0.98;77.27
63554;BME280;49699;48.072;7.800;2023-01-29T07:38:16;100595.56;;;-0.92;76.64
63554;BME280;49699;48.072;7.800;2023-01-29T07:40:41;100588.78;;;-0.87;76.47
63554;BME280;49699;48.072;7.800;2023-01-29T07:43:08;100585.41;;;-0.82;76.02
63554;BME280;49699;48.072;7.800;2023-01-29T07:45:34;100582.88;;;-0.77;75.96
63554;BME280;49699;48.072;7.800;2023-01-29T07:48:00;100589.72;;;-0.75;76.10
63554;BME280;49699;48.072;7.800;2023-01-29T07:50:25;100585.47;;;-0.70;76.06
63554;BME280;49699;48.072;7.800;2023-01-29T07:52:52;100577.00;;;-0.62;75.82
63554;BME280;49699;48.072;7.800;2023-01-29T07:55:18;100588.16;;;-0.56;75.70
63554;BME280;49699;48.072;7.800;2023-01-29T07:57:43;100594.97;;;-0.52;75.47
63554;BME280;49699;48.072;7.800;2023-01-29T08:00:09;100597.56;;;-0.47;75.07
63554;BME280;49699;48.072;7.800;2023-01-29T08:02:38;100595.06;;;-0.38;74.64
63554;BME280;49699;48.072;7.800;2023-01-29T08:05:04;100604.44;;;-0.32;74.22
63554;BME280;49699;48.072;7.800;2023-01-29T08:07:29;100617.25;;;-0.29;74.22
63554;BME280;49699;48.072;7.800;2023-01-29T08:09:55;100618.16;;;-0.24;74.59
63554;BME280;49699;48.072;7.800;2023-01-29T08:12:20;100627.53;;;-0.17;73.97
63554;BME280;49699;48.072;7.800;2023-01-29T08:14:45;100623.31;;;-0.12;73.72
63554;BME280;49699;48.072;7.800;2023-01-29T08:17:11;100631.88;;;-0.06;73.68
63554;BME280;49699;48.072;7.800;2023-01-29T08:19:36;100631.91;;;0.05;73.34
63554;BME280;49699;48.072;7.800;2023-01-29T08:22:02;100634.53;;;0.16;73.08
63554;BME280;49699;48.072;7.800;2023-01-29T08:24:28;100637.94;;;0.24;72.82
63554;BME280;49699;48.072;7.800;2023-01-29T08:26:53;100637.97;;;0.27;72.36
63554;BME280;49699;48.072;7.800;2023-01-29T08:29:19;100641.41;;;0.29;72.73
63554;BME280;49699;48.072;7.800;2023-01-29T08:31:44;100647.41;;;0.34;72.70
63554;BME280;49699;48.072;7.800;2023-01-29T08:34:09;100647.41;;;0.40;72.38
63554;BME280;49699;48.072;7.800;2023-01-29T08:36:35;100650.78;;;0.38;72.39
63554;BME280;49699;48.072;7.800;2023-01-29T08:39:00;100663.59;;;0.36;72.65
63554;BME280;49699;48.072;7.800;2023-01-29T08:41:25;100662.75;;;0.34;72.63
63554;BME280;49699;48.072;7.800;2023-01-29T08:43:50;100663.59;;;0.33;72.74
63554;BME280;49699;48.072;7.800;2023-01-29T08:46:16;100667.00;;;0.30;73.01
63554;BME280;49699;48.072;7.800;2023-01-29T08:48:41;100660.19;;;0.29;72.96
63554;BME280;49699;48.072;7.800;2023-01-29T08:51:07;100658.47;;;0.28;73.05
63554;BME280;49699;48.072;7.800;2023-01-29T08:53:32;100671.28;;;0.30;72.93
63554;BME280;49699;48.072;7.800;2023-01-29T08:55:58;100664.44;;;0.30;73.14
63554;BME280;49699;48.072;7.800;2023-01-29T08:58:23;100669.56;;;0.37;72.41
63554;BME280;49699;48.072;7.800;2023-01-29T09:00:48;100667.03;;;0.38;72.44
63554;BME280;49699;48.072;7.800;2023-01-29T09:03:14;100676.41;;;0.39;72.46
63554;BME280;49699;48.072;7.800;2023-01-29T09:05:39;100684.09;;;0.38;72.13
63554;BME280;49699;48.072;7.800;2023-01-29T09:08:05;100681.53;;;0.33;71.56
63554;BME280;49699;48.072;7.800;2023-01-29T09:10:31;100689.19;;;0.27;71.82
63554;BME280;49699;48.072;7.800;2023-01-29T09:12:56;100684.88;;;0.23;71.78
63554;BME280;49699;48.072;7.800;2023-01-29T09:15:21;100678.91;;;0.22;71.77
63554;BME280;49699;48.072;7.800;2023-01-29T09:17:47;100680.66;;;0.28;71.59
63554;BME280;49699;48.072;7.800;2023-01-29T09:20:15;100683.22;;;0.31;71.54
63554;BME280;49699;48.072;7.800;2023-01-29T09:22:41;100679.84;;;0.35;71.00
63554;BME280;49699;48.072;7.800;2023-01-29T09:25:06;100682.38;;;0.33;71.16
63554;BME280;49699;48.072;7.800;2023-01-29T09:27:31;100684.09;;;0.38;70.93
63554;BME280;49699;48.072;7.800;2023-01-29T09:29:57;100685.81;;;0.40;71.10
63554;BME280;49699;48.072;7.800;2023-01-29T09:32:22;100682.44;;;0.47;70.86
63554;BME280;49699;48.072;7.800;2023-01-29T09:34:47;100684.16;;;0.56;71.11
63554;BME280;49699;48.072;7.800;2023-01-29T09:37:13;100675.63;;;0.63;70.46
63554;BME280;49699;48.072;7.800;2023-01-29T09:39:38;100673.94;;;0.63;70.21
63554;BME280;49699;48.072;7.800;2023-01-29T09:46:54;100673.94;;;0.66;70.28
63554;BME280;49699;48.072;7.800;2023-01-29T09:49:25;100659.41;;;0.73;70.22
63554;BME280;49699;48.072;7.800;2023-01-29T09:51:52;100672.25;;;0.76;69.96
63554;BME280;49699;48.072;7.800;2023-01-29T09:54:22;100669.69;;;0.81;69.72
63554;BME280;49699;48.072;7.800;2023-01-29T09:56:49;100658.59;;;0.92;69.41
63554;BME280;49699;48.072;7.800;2023-01-29T09:59:16;100654.34;;;1.02;69.24
63554;BME280;49699;48.072;7.800;2023-01-29T10:01:52;100662.88;;;1.15;68.84
63554;BME280;49699;48.072;7.800;2023-01-29T10:07:28;100667.13;;;1.49;67.93
63554;BME280;49699;48.072;7.800;2023-01-29T10:09:58;100665.41;;;1.66;67.41
63554;BME280;49699;48.072;7.800;2023-01-29T10:25:10;100633.72;;;3.23;63.33
63554;BME280;49699;48.072;7.800;2023-01-29T10:27:38;100617.94;;;3.60;62.37
63554;BME280;49699;48.072;7.800;2023-01-29T10:30:06;100605.50;;;3.95;60.98
63554;BME280;49699;48.072;7.800;2023-01-29T10:32:33;100592.31;;;4.23;60.23
63554;BME280;49699;48.072;7.800;2023-01-29T10:35:12;100592.91;;;4.40;59.87
63554;BME280;49699;48.072;7.800;2023-01-29T10:37:42;100584.78;;;4.67;59.12
63554;BME280;49699;48.072;7.800;2023-01-29T10:40:25;100568.94;;;4.90;58.43
63554;BME280;49699;48.072;7.800;2023-01-29T10:43:01;100571.25;;;5.05;58.19
63554;BME280;49699;48.072;7.800;2023-01-29T11:01:18;100564.34;;;5.98;55.10
63554;BME280;49699;48.072;7.800;2023-01-29T11:03:43;100570.75;;;5.79;55.54
63554;BME280;49699;48.072;7.800;2023-01-29T11:06:10;100572.28;;;5.44;55.23
63554;BME280;49699;48.072;7.800;2023-01-29T11:11:06;100562.13;;;4.84;56.29
63554;BME280;49699;48.072;7.800;2023-01-29T11:13:34;100563.22;;;4.71;56.47
63554;BME280;49699;48.072;7.800;2023-01-29T11:16:03;100567.41;;;4.78;56.13
63554;BME280;49699;48.072;7.800;2023-01-29T11:18:28;100563.16;;;4.76;55.93
63554;BME280;49699;48.072;7.800;2023-01-29T11:21:12;100563.97;;;4.79;55.82
63554;BME280;49699;48.072;7.800;2023-01-29T11:23:37;100566.28;;;4.96;55.62
63554;BME280;49699;48.072;7.800;2023-01-29T11:26:02;100556.47;;;5.16;55.15
63554;BME280;49699;48.072;7.800;2023-01-29T11:28:35;100558.75;;;5.32;54.50
63554;BME280;49699;48.072;7.800;2023-01-29T11:31:01;100550.84;;;5.39;54.16
63554;BME280;49699;48.072;7.800;2023-01-29T11:33:26;100550.69;;;5.48;53.81
63554;BME280;49699;48.072;7.800;2023-01-29T11:35:52;100545.47;;;5.53;53.61
63554;BME280;49699;48.072;7.800;2023-01-29T11:38:20;100539.53;;;5.46;53.57
63554;BME280;49699;48.072;7.800;2023-01-29T11:40:46;100539.69;;;5.39;53.57
63554;BME280;49699;48.072;7.800;2023-01-29T11:43:28;100543.34;;;5.27;53.47
63554;BME280;49699;48.072;7.800;2023-01-29T11:46:03;100543.69;;;5.07;53.74
63554;BME280;49699;48.072;7.800;2023-01-29T11:48:46;100548.16;;;4.99;53.92
63554;BME280;49699;48.072;7.800;2023-01-29T11:51:21;100543.06;;;4.96;53.97
63554;BME280;49699;48.072;7.800;2023-01-29T11:53:51;100541.28;;;5.00;54.50
63554;BME280;49699;48.072;7.800;2023-01-29T11:56:22;100543.00;;;4.99;54.56
63554;BME280;49699;48.072;7.800;2023-01-29T11:58:48;100530.94;;;5.01;54.33
63554;BME280;49699;48.072;7.800;2023-01-29T12:01:15;100535.25;;;4.99;54.66
63554;BME280;49699;48.072;7.800;2023-01-29T12:03:48;100531.91;;;4.94;54.63
63554;BME280;49699;48.072;7.800;2023-01-29T12:06:17;100531.28;;;4.81;54.67
63554;BME280;49699;48.072;7.800;2023-01-29T12:08:44;100529.75;;;4.67;55.24
63554;BME280;49699;48.072;7.800;2023-01-29T12:11:26;100531.75;;;4.51;55.04
63554;BME280;49699;48.072;7.800;2023-01-29T12:13:56;100526.84;;;4.34;55.21
63554;BME280;49699;48.072;7.800;2023-01-29T12:16:38;100521.59;;;4.42;55.23
63554;BME280;49699;48.072;7.800;2023-01-29T12:19:19;100517.91;;;4.57;55.20
63554;BME280;49699;48.072;7.800;2023-01-29T12:24:35;100509.91;;;4.73;54.31
63554;BME280;49699;48.072;7.800;2023-01-29T12:29:51;100511.66;;;4.71;54.45
63554;BME280;49699;48.072;7.800;2023-01-29T12:40:18;100516.75;;;4.19;56.25
63554;BME280;49699;48.072;7.800;2023-01-29T12:42:47;100510.78;;;4.17;55.96
63554;BME280;49699;48.072;7.800;2023-01-29T12:45:15;100490.16;;;4.18;56.18
63554;BME280;49699;48.072;7.800;2023-01-29T12:47:42;100490.19;;;4.14;56.10
63554;BME280;49699;48.072;7.800;2023-01-29T12:52:46;100483.31;;;4.16;56.41
63554;BME280;49699;48.072;7.800;2023-01-29T12:57:58;100472.94;;;4.21;55.72
63554;BME280;49699;48.072;7.800;2023-01-29T13:05:28;100464.09;;;3.78;56.47
63554;BME280;49699;48.072;7.800;2023-01-29T13:07:56;100462.38;;;3.77;56.39
63554;BME280;49699;48.072;7.800;2023-01-29T13:10:25;100460.66;;;3.78;56.69
63554;BME280;49699;48.072;7.800;2023-01-29T13:15:37;100453.09;;;3.69;56.74
63554;BME280;49699;48.072;7.800;2023-01-29T13:20:47;100452.06;;;3.80;57.18
63554;BME280;49699;48.072;7.800;2023-01-29T13:25:42;100435.56;;;3.94;56.96
63554;BME280;49699;48.072;7.800;2023-01-29T13:28:15;100427.81;;;3.95;56.79
63554;BME280;49699;48.072;7.800;2023-01-29T13:30:40;100417.41;;;4.01;56.67
63554;BME280;49699;48.072;7.800;2023-01-29T13:33:06;100416.53;;;4.02;56.72
63554;BME280;49699;48.072;7.800;2023-01-29T13:35:35;100418.41;;;3.93;56.14
63554;BME280;49699;48.072;7.800;2023-01-29T13:38:01;100410.81;;;3.83;56.35
63554;BME280;49699;48.072;7.800;2023-01-29T13:40:28;100409.84;;;3.92;56.33
63554;BME280;49699;48.072;7.800;2023-01-29T13:42:54;100408.84;;;4.01;56.63
63554;BME280;49699;48.072;7.800;2023-01-29T13:45:21;100406.19;;;4.07;56.19
63554;BME280;49699;48.072;7.800;2023-01-29T13:47:47;100406.84;;;4.18;56.26
63554;BME280;49699;48.072;7.800;2023-01-29T13:50:18;100393.84;;;4.26;56.21
63554;BME280;49699;48.072;7.800;2023-01-29T13:52:44;100395.50;;;4.30;55.96
63554;BME280;49699;48.072;7.800;2023-01-29T14:00:04;100387.28;;;4.08;56.87
63554;BME280;49699;48.072;7.800;2023-01-29T14:02:30;100393.31;;;4.05;56.73
63554;BME280;49699;48.072;7.800;2023-01-29T14:10:11;100400.31;;;3.97;57.02
63554;BME280;49699;48.072;7.800;2023-01-29T14:12:39;100402.84;;;3.99;56.62
63554;BME280;49699;48.072;7.800;2023-01-29T14:15:18;100404.53;;;4.01;56.66
63554;BME280;49699;48.072;7.800;2023-01-29T14:25:57;100406.47;;;3.89;57.06
63554;BME280;49699;48.072;7.800;2023-01-29T14:28:24;100409.03;;;3.89;56.87
63554;BME280;49699;48.072;7.800;2023-01-29T14:30:50;100403.09;;;3.82;57.03
63554;BME280;49699;48.072;7.800;2023-01-29T14:35:50;100406.78;;;3.66;57.38
63554;BME280;49699;48.072;7.800;2023-01-29T14:38:16;100414.53;;;3.64;57.43
63554;BME280;49699;48.072;7.800;2023-01-29T14:40:42;100410.19;;;3.68;57.53
63554;BME280;49699;48.072;7.800;2023-01-29T14:43:13;100409.28;;;3.70;57.61
63554;BME280;49699;48.072;7.800;2023-01-29T14:45:44;100422.16;;;3.72;57.68
63554;BME280;49699;48.072;7.800;2023-01-29T14:53:14;100426.72;;;3.50;58.28
63554;BME280;49699;48.072;7.800;2023-01-29T15:00:53;100429.50;;;3.35;58.96
63554;BME280;49699;48.072;7.800;2023-01-29T15:05:51;100442.41;;;3.32;58.58
63554;BME280;49699;48.072;7.800;2023-01-29T15:10:55;100447.59;;;3.29;58.62
63554;BME280;49699;48.072;7.800;2023-01-29T15:13:55;100447.59;;;3.27;58.52
63554;BME280;49699;48.072;7.800;2023-01-29T15:16:23;100445.88;;;3.26;58.70
63554;BME280;49699;48.072;7.800;2023-01-29T15:18:50;100451.88;;;3.27;58.95
63554;BME280;49699;48.072;7.800;2023-01-29T15:21:17;100447.59;;;3.26;58.94
63554;BME280;49699;48.072;7.800;2023-01-29T15:23:43;100451.13;;;3.22;59.14
63554;BME280;49699;48.072;7.800;2023-01-29T15:26:09;100467.44;;;3.19;59.03
63554;BME280;49699;48.072;7.800;2023-01-29T15:28:35;100460.59;;;3.15;59.39
63554;BME280;49699;48.072;7.800;2023-01-29T15:31:02;100460.63;;;3.12;59.50